sensor_id;sensor_type;location;lat;lon;timestamp;pressure;altitude;pressure_sealevel;temperature;humidity
17054;BME280;8643;48.824;11.422;2024-01-10T00:00:05;97757.56;;;-8.62;100.00
17054;BME280;8643;48.824;11.422;2024-01-10T00:02:34;97763.13;;;-8.57;100.00
17054;BME280;8643;48.824;11.422;2024-01-10T00:05:04;97760.28;;;-8.55;100.00
17054;BME280;8643;48.824;11.422;2024-01-10T00:07:34;97759.06;;;-8.53;100.00
17054;BME280;8643;48.824;11.422;2024-01-10T00:10:04;97748.88;;;-8.49;100.00
17054;BME280;8643;48.824;11.422;2024-01-10T00:12:33;97750.44;;;-8.33;100.00
17054;BME280;8643;48.824;11.422;2024-01-10T00:15:04;97749.03;;;-8.29;100.00
17054;BME280;8643;48.824;11.422;2024-01-10T00:17:33;97752.19;;;-8.19;100.00
17054;BME280;8643;48.824;11.422;2024-01-10T00:20:02;97738.19;;;-8.06;100.00
17054;BME280;8643;48.824;11.422;2024-01-10T00:22:30;97740.50;;;-7.96;100.00
17054;BME280;8643;48.824;11.422;2024-01-10T00:25:00;97736.03;;;-7.89;100.00
17054;BME280;8643;48.824;11.422;2024-01-10T00:27:29;97736.09;;;-7.82;100.00
17054;BME280;8643;48.824;11.422;2024-01-10T00:29:57;97740.84;;;-7.71;100.00
17054;BME280;8643;48.824;11.422;2024-01-10T00:32:26;97743.34;;;-7.63;100.00
17054;BME280;8643;48.824;11.422;2024-01-10T00:34:54;97735.63;;;-7.58;100.00
17054;BME280;8643;48.824;11.422;2024-01-10T00:37:23;97735.03;;;-7.53;100.00
17054;BME280;8643;48.824;11.422;2024-01-10T00:39:51;97732.81;;;-7.49;100.00
17054;BME280;8643;48.824;11.422;2024-01-10T00:42:21;97740.19;;;-7.45;100.00
17054;BME280;8643;48.824;11.422;2024-01-10T00:44:50;97736.53;;;-7.37;100.00
17054;BME280;8643;48.824;11.422;2024-01-10T00:47:18;97741.47;;;-7.34;100.00
17054;BME280;8643;48.824;11.422;2024-01-10T00:49:47;97735.97;;;-7.32;100.00
17054;BME280;8643;48.824;11.422;2024-01-10T00:52:15;97737.22;;;-7.28;100.00
17054;BME280;8643;48.824;11.422;2024-01-10T00:54:44;97735.78;;;-7.24;100.00
17054;BME280;8643;48.824;11.422;2024-01-10T00:57:13;97738.06;;;-7.14;100.00
17054;BME280;8643;48.824;11.422;2024-01-10T00:59:43;97739.50;;;-7.19;100.00
17054;BME280;8643;48.824;11.422;2024-01-10T01:02:11;97736.59;;;-7.24;100.00
17054;BME280;8643;48.824;11.422;2024-01-10T01:04:40;97735.38;;;-7.21;100.00
17054;BME280;8643;48.824;11.422;2024-01-10T01:07:08;97729.66;;;-7.25;100.00
17054;BME280;8643;48.824;11.422;2024-01-10T01:09:37;97734.19;;;-7.19;100.00
17054;BME280;8643;48.824;11.422;2024-01-10T01:12:06;97739.09;;;-7.15;100.00
17054;BME280;8643;48.824;11.422;2024-01-10T01:14:34;97744.22;;;-7.14;100.00
17054;BME280;8643;48.824;11.422;2024-01-10T01:17:05;97741.94;;;-7.17;100.00
17054;BME280;8643;48.824;11.422;2024-01-10T01:19:33;97730.31;;;-7.09;100.00
17054;BME280;8643;48.824;11.422;2024-01-10T01:22:02;97748.13;;;-7.10;100.00
17054;BME280;8643;48.824;11.422;2024-01-10T01:24:30;97746.31;;;-7.03;100.00
17054;BME280;8643;48.824;11.422;2024-01-10T01:26:59;97745.06;;;-7.07;100.00
17054;BME280;8643;48.824;11.422;2024-01-10T01:29:27;97746.75;;;-6.99;100.00
17054;BME280;8643;48.824;11.422;2024-01-10T01:31:57;97743.44;;;-7.01;100.00
17054;BME280;8643;48.824;11.422;2024-01-10T01:34:27;97747.97;;;-6.95;100.00
17054;BME280;8643;48.824;11.422;2024-01-10T01:36:55;97750.22;;;-6.98;100.00
17054;BME280;8643;48.824;11.422;2024-01-10T01:39:23;97747.59;;;-6.92;100.00
17054;BME280;8643;48.824;11.422;2024-01-10T01:41:52;97748.19;;;-6.90;100.00
17054;BME280;8643;48.824;11.422;2024-01-10T01:44:21;97750.84;;;-6.90;100.00
17054;BME280;8643;48.824;11.422;2024-01-10T01:46:49;97747.38;;;-6.90;100.00
17054;BME280;8643;48.824;11.422;2024-01-10T01:49:18;97742.88;;;-6.90;100.00
17054;BME280;8643;48.824;11.422;2024-01-10T01:51:49;97743.47;;;-6.88;100.00
17054;BME280;8643;48.824;11.422;2024-01-10T01:54:18;97744.94;;;-6.85;100.00
17054;BME280;8643;48.824;11.422;2024-01-10T01:56:48;97739.00;;;-6.87;100.00
17054;BME280;8643;48.824;11.422;2024-01-10T01:59:18;97744.75;;;-6.84;100.00
17054;BME280;8643;48.824;11.422;2024-01-10T02:01:47;97737.53;;;-6.90;100.00
17054;BME280;8643;48.824;11.422;2024-01-10T02:04:16;97744.72;;;-6.90;100.00
17054;BME280;8643;48.824;11.422;2024-01-10T02:06:44;97738.59;;;-6.91;100.00
17054;BME280;8643;48.824;11.422;2024-01-10T02:09:14;97742.66;;;-6.95;100.00
17054;BME280;8643;48.824;11.422;2024-01-10T02:11:43;97743.66;;;-6.96;100.00
17054;BME280;8643;48.824;11.422;2024-01-10T02:14:12;97747.75;;;-7.00;100.00
17054;BME280;8643;48.824;11.422;2024-01-10T02:16:41;97749.16;;;-7.04;100.00
17054;BME280;8643;48.824;11.422;2024-01-10T02:19:20;97739.13;;;-7.09;100.00
17054;BME280;8643;48.824;11.422;2024-01-10T02:21:49;97753.06;;;-7.07;100.00
17054;BME280;8643;48.824;11.422;2024-01-10T02:24:19;97752.22;;;-7.07;100.00
17054;BME280;8643;48.824;11.422;2024-01-10T02:26:50;97754.06;;;-7.08;100.00
17054;BME280;8643;48.824;11.422;2024-01-10T02:29:18;97756.72;;;-7.14;100.00
17054;BME280;8643;48.824;11.422;2024-01-10T02:31:47;97742.41;;;-7.13;100.00
17054;BME280;8643;48.824;11.422;2024-01-10T02:34:15;97741.13;;;-7.18;100.00
17054;BME280;8643;48.824;11.422;2024-01-10T02:36:44;97744.59;;;-7.24;100.00
17054;BME280;8643;48.824;11.422;2024-01-10T02:39:12;97747.88;;;-7.28;100.00
17054;BME280;8643;48.824;11.422;2024-01-10T02:41:41;97744.13;;;-7.34;100.00
17054;BME280;8643;48.824;11.422;2024-01-10T02:44:11;97749.44;;;-7.41;100.00
17054;BME280;8643;48.824;11.422;2024-01-10T02:46:41;97744.88;;;-7.47;100.00
17054;BME280;8643;48.824;11.422;2024-01-10T02:49:10;97747.50;;;-7.53;100.00
17054;BME280;8643;48.824;11.422;2024-01-10T02:51:38;97742.78;;;-7.58;100.00
17054;BME280;8643;48.824;11.422;2024-01-10T02:54:07;97742.97;;;-7.60;100.00
17054;BME280;8643;48.824;11.422;2024-01-10T02:56:35;97743.56;;;-7.64;100.00
17054;BME280;8643;48.824;11.422;2024-01-10T02:59:04;97735.16;;;-7.68;100.00
17054;BME280;8643;48.824;11.422;2024-01-10T03:01:34;97740.84;;;-7.71;100.00
17054;BME280;8643;48.824;11.422;2024-01-10T03:04:02;97738.81;;;-7.76;100.00
17054;BME280;8643;48.824;11.422;2024-01-10T03:06:31;97734.06;;;-7.80;100.00
17054;BME280;8643;48.824;11.422;2024-01-10T03:08:59;97742.03;;;-7.80;100.00
17054;BME280;8643;48.824;11.422;2024-01-10T03:11:28;97737.97;;;-7.76;100.00
17054;BME280;8643;48.824;11.422;2024-01-10T03:14:02;97741.00;;;-7.79;100.00
17054;BME280;8643;48.824;11.422;2024-01-10T03:16:32;97743.66;;;-7.79;100.00
17054;BME280;8643;48.824;11.422;2024-01-10T03:19:02;97739.47;;;-7.67;100.00
17054;BME280;8643;48.824;11.422;2024-01-10T03:21:31;97742.75;;;-7.65;100.00
17054;BME280;8643;48.824;11.422;2024-01-10T03:24:01;97736.16;;;-7.76;100.00
17054;BME280;8643;48.824;11.422;2024-01-10T03:26:30;97737.16;;;-7.77;100.00
17054;BME280;8643;48.824;11.422;2024-01-10T03:28:58;97739.22;;;-7.72;100.00
17054;BME280;8643;48.824;11.422;2024-01-10T03:31:29;97736.56;;;-7.72;100.00
17054;BME280;8643;48.824;11.422;2024-01-10T03:33:58;97736.72;;;-7.80;100.00
17054;BME280;8643;48.824;11.422;2024-01-10T03:36:28;97738.94;;;-7.84;100.00
17054;BME280;8643;48.824;11.422;2024-01-10T03:38:57;97734.25;;;-7.82;100.00
17054;BME280;8643;48.824;11.422;2024-01-10T03:41:25;97735.88;;;-7.81;100.00
17054;BME280;8643;48.824;11.422;2024-01-10T03:43:54;97731.59;;;-7.82;100.00
17054;BME280;8643;48.824;11.422;2024-01-10T03:46:22;97728.72;;;-7.87;100.00
17054;BME280;8643;48.824;11.422;2024-01-10T03:48:51;97727.81;;;-7.94;100.00
17054;BME280;8643;48.824;11.422;2024-01-10T03:51:20;97725.41;;;-7.89;100.00
17054;BME280;8643;48.824;11.422;2024-01-10T03:53:51;97729.72;;;-7.88;100.00
17054;BME280;8643;48.824;11.422;2024-01-10T03:56:22;97727.25;;;-7.89;100.00
17054;BME280;8643;48.824;11.422;2024-01-10T03:58:50;97724.59;;;-7.89;100.00
17054;BME280;8643;48.824;11.422;2024-01-10T04:01:22;97722.50;;;-7.94;100.00
17054;BME280;8643;48.824;11.422;2024-01-10T04:03:51;97720.47;;;-7.92;100.00
17054;BME280;8643;48.824;11.422;2024-01-10T04:06:20;97724.41;;;-7.88;100.00
17054;BME280;8643;48.824;11.422;2024-01-10T04:08:50;97731.31;;;-7.94;100.00
17054;BME280;8643;48.824;11.422;2024-01-10T04:11:18;97730.25;;;-7.99;100.00
17054;BME280;8643;48.824;11.422;2024-01-10T04:13:47;97729.59;;;-8.08;100.00
17054;BME280;8643;48.824;11.422;2024-01-10T04:16:15;97723.56;;;-8.17;100.00
17054;BME280;8643;48.824;11.422;2024-01-10T04:18:44;97730.13;;;-8.19;100.00
17054;BME280;8643;48.824;11.422;2024-01-10T04:21:12;97725.59;;;-8.19;100.00
17054;BME280;8643;48.824;11.422;2024-01-10T04:23:41;97724.56;;;-8.24;100.00
17054;BME280;8643;48.824;11.422;2024-01-10T04:26:11;97726.63;;;-8.20;100.00
17054;BME280;8643;48.824;11.422;2024-01-10T04:28:39;97732.38;;;-8.16;100.00
17054;BME280;8643;48.824;11.422;2024-01-10T04:31:08;97728.31;;;-8.12;100.00
17054;BME280;8643;48.824;11.422;2024-01-10T04:33:37;97732.59;;;-8.18;100.00
17054;BME280;8643;48.824;11.422;2024-01-10T04:36:06;97732.06;;;-8.28;100.00
17054;BME280;8643;48.824;11.422;2024-01-10T04:38:35;97735.50;;;-8.34;100.00
17054;BME280;8643;48.824;11.422;2024-01-10T04:41:03;97733.25;;;-8.37;100.00
17054;BME280;8643;48.824;11.422;2024-01-10T04:43:33;97730.47;;;-8.51;100.00
17054;BME280;8643;48.824;11.422;2024-01-10T04:46:02;97724.34;;;-8.51;100.00
17054;BME280;8643;48.824;11.422;2024-01-10T04:48:30;97720.50;;;-8.49;100.00
17054;BME280;8643;48.824;11.422;2024-01-10T04:50:59;97732.75;;;-8.48;100.00
17054;BME280;8643;48.824;11.422;2024-01-10T04:53:28;97735.41;;;-8.48;100.00
17054;BME280;8643;48.824;11.422;2024-01-10T04:55:56;97730.94;;;-8.47;100.00
17054;BME280;8643;48.824;11.422;2024-01-10T04:58:25;97741.38;;;-8.45;100.00
17054;BME280;8643;48.824;11.422;2024-01-10T05:00:55;97745.06;;;-8.40;100.00
17054;BME280;8643;48.824;11.422;2024-01-10T05:03:23;97743.22;;;-8.39;100.00
17054;BME280;8643;48.824;11.422;2024-01-10T05:05:52;97739.94;;;-8.41;100.00
17054;BME280;8643;48.824;11.422;2024-01-10T05:08:20;97748.72;;;-8.41;100.00
17054;BME280;8643;48.824;11.422;2024-01-10T05:10:49;97750.16;;;-8.45;100.00
17054;BME280;8643;48.824;11.422;2024-01-10T05:13:18;97754.88;;;-8.40;100.00
17054;BME280;8643;48.824;11.422;2024-01-10T05:15:46;97753.19;;;-8.48;100.00
17054;BME280;8643;48.824;11.422;2024-01-10T05:18:18;97761.97;;;-8.48;100.00
17054;BME280;8643;48.824;11.422;2024-01-10T05:20:47;97758.50;;;-8.48;100.00
17054;BME280;8643;48.824;11.422;2024-01-10T05:23:15;97752.31;;;-8.55;100.00
17054;BME280;8643;48.824;11.422;2024-01-10T05:25:43;97755.09;;;-8.63;100.00
17054;BME280;8643;48.824;11.422;2024-01-10T05:28:12;97755.66;;;-8.68;100.00
17054;BME280;8643;48.824;11.422;2024-01-10T05:30:40;97750.72;;;-8.71;100.00
17054;BME280;8643;48.824;11.422;2024-01-10T05:33:09;97755.66;;;-8.68;100.00
17054;BME280;8643;48.824;11.422;2024-01-10T05:35:40;97753.94;;;-8.76;100.00
17054;BME280;8643;48.824;11.422;2024-01-10T05:38:08;97752.66;;;-8.80;100.00
17054;BME280;8643;48.824;11.422;2024-01-10T05:40:37;97754.63;;;-8.67;100.00
17054;BME280;8643;48.824;11.422;2024-01-10T05:43:06;97770.38;;;-8.66;100.00
17054;BME280;8643;48.824;11.422;2024-01-10T05:45:35;97755.72;;;-8.61;100.00
17054;BME280;8643;48.824;11.422;2024-01-10T05:48:04;97757.81;;;-8.57;100.00
17054;BME280;8643;48.824;11.422;2024-01-10T05:50:33;97765.72;;;-8.63;100.00
17054;BME280;8643;48.824;11.422;2024-01-10T05:53:03;97762.78;;;-8.69;100.00
17054;BME280;8643;48.824;11.422;2024-01-10T05:55:32;97759.44;;;-8.77;100.00
17054;BME280;8643;48.824;11.422;2024-01-10T05:58:00;97756.78;;;-8.77;100.00
17054;BME280;8643;48.824;11.422;2024-01-10T06:00:29;97765.97;;;-8.58;100.00
17054;BME280;8643;48.824;11.422;2024-01-10T06:02:57;97761.03;;;-8.61;100.00
17054;BME280;8643;48.824;11.422;2024-01-10T06:05:26;97754.84;;;-8.47;100.00
17054;BME280;8643;48.824;11.422;2024-01-10T06:07:55;97764.47;;;-8.39;100.00
17054;BME280;8643;48.824;11.422;2024-01-10T06:10:25;97757.97;;;-8.37;100.00
17054;BME280;8643;48.824;11.422;2024-01-10T06:12:53;97761.44;;;-8.36;100.00
17054;BME280;8643;48.824;11.422;2024-01-10T06:15:22;97763.28;;;-8.37;100.00
17054;BME280;8643;48.824;11.422;2024-01-10T06:17:50;97761.63;;;-8.38;100.00
17054;BME280;8643;48.824;11.422;2024-01-10T06:20:19;97760.59;;;-8.43;100.00
17054;BME280;8643;48.824;11.422;2024-01-10T06:22:49;97770.59;;;-8.45;100.00
17054;BME280;8643;48.824;11.422;2024-01-10T06:25:20;97779.19;;;-8.43;100.00
17054;BME280;8643;48.824;11.422;2024-01-10T06:27:50;97778.38;;;-8.44;100.00
17054;BME280;8643;48.824;11.422;2024-01-10T06:30:19;97780.38;;;-8.46;100.00
17054;BME280;8643;48.824;11.422;2024-01-10T06:32:47;97773.88;;;-8.43;100.00
17054;BME280;8643;48.824;11.422;2024-01-10T06:35:16;97769.31;;;-8.50;100.00
17054;BME280;8643;48.824;11.422;2024-01-10T06:37:45;97778.56;;;-8.45;100.00
17054;BME280;8643;48.824;11.422;2024-01-10T06:40:14;97773.63;;;-8.49;100.00
17054;BME280;8643;48.824;11.422;2024-01-10T06:42:43;97779.56;;;-8.46;100.00
17054;BME280;8643;48.824;11.422;2024-01-10T06:45:15;97784.09;;;-8.40;100.00
17054;BME280;8643;48.824;11.422;2024-01-10T06:47:43;97777.94;;;-8.41;100.00
17054;BME280;8643;48.824;11.422;2024-01-10T06:50:12;97780.75;;;-8.49;100.00
17054;BME280;8643;48.824;11.422;2024-01-10T06:52:40;97783.53;;;-8.57;100.00
17054;BME280;8643;48.824;11.422;2024-01-10T06:55:09;97783.53;;;-8.57;100.00
17054;BME280;8643;48.824;11.422;2024-01-10T06:57:38;97786.47;;;-8.52;100.00
17054;BME280;8643;48.824;11.422;2024-01-10T07:00:07;97795.13;;;-8.43;100.00
17054;BME280;8643;48.824;11.422;2024-01-10T07:02:39;97800.03;;;-8.40;100.00
17054;BME280;8643;48.824;11.422;2024-01-10T07:05:09;97799.66;;;-8.37;100.00
17054;BME280;8643;48.824;11.422;2024-01-10T07:07:38;97808.06;;;-8.34;100.00
17054;BME280;8643;48.824;11.422;2024-01-10T07:10:07;97802.19;;;-8.29;100.00
17054;BME280;8643;48.824;11.422;2024-01-10T07:12:36;97799.91;;;-8.32;100.00
17054;BME280;8643;48.824;11.422;2024-01-10T07:15:06;97801.84;;;-8.41;100.00
17054;BME280;8643;48.824;11.422;2024-01-10T07:17:35;97811.47;;;-8.40;100.00
17054;BME280;8643;48.824;11.422;2024-01-10T07:20:07;97808.63;;;-8.38;100.00
17054;BME280;8643;48.824;11.422;2024-01-10T07:22:39;97812.75;;;-8.36;100.00
17054;BME280;8643;48.824;11.422;2024-01-10T07:25:11;97811.28;;;-8.38;100.00
17054;BME280;8643;48.824;11.422;2024-01-10T07:27:42;97814.53;;;-8.43;100.00
17054;BME280;8643;48.824;11.422;2024-01-10T07:30:11;97819.69;;;-8.35;100.00
17054;BME280;8643;48.824;11.422;2024-01-10T07:32:41;97822.78;;;-8.31;100.00
17054;BME280;8643;48.824;11.422;2024-01-10T07:35:12;97828.38;;;-8.26;100.00
17054;BME280;8643;48.824;11.422;2024-01-10T07:37:42;97824.75;;;-8.18;100.00
17054;BME280;8643;48.824;11.422;2024-01-10T07:40:11;97824.63;;;-8.10;100.00
17054;BME280;8643;48.824;11.422;2024-01-10T07:42:43;97819.63;;;-7.98;100.00
17054;BME280;8643;48.824;11.422;2024-01-10T07:45:12;97824.72;;;-7.75;100.00
17054;BME280;8643;48.824;11.422;2024-01-10T07:47:41;97829.28;;;-7.69;100.00
17054;BME280;8643;48.824;11.422;2024-01-10T07:50:13;97824.00;;;-7.62;100.00
17054;BME280;8643;48.824;11.422;2024-01-10T07:52:43;97829.16;;;-7.54;100.00
17054;BME280;8643;48.824;11.422;2024-01-10T07:55:13;97831.53;;;-7.38;100.00
17054;BME280;8643;48.824;11.422;2024-01-10T07:57:42;97837.31;;;-7.27;100.00
17054;BME280;8643;48.824;11.422;2024-01-10T08:00:12;97826.38;;;-7.04;100.00
17054;BME280;8643;48.824;11.422;2024-01-10T08:02:41;97824.59;;;-6.90;100.00
17054;BME280;8643;48.824;11.422;2024-01-10T08:05:11;97827.53;;;-6.78;100.00
17054;BME280;8643;48.824;11.422;2024-01-10T08:07:40;97826.50;;;-6.77;100.00
17054;BME280;8643;48.824;11.422;2024-01-10T08:10:10;97827.56;;;-6.65;100.00
17054;BME280;8643;48.824;11.422;2024-01-10T08:12:39;97825.00;;;-6.32;100.00
17054;BME280;8643;48.824;11.422;2024-01-10T08:15:09;97822.97;;;-6.10;100.00
17054;BME280;8643;48.824;11.422;2024-01-10T08:17:38;97816.00;;;-5.91;100.00
17054;BME280;8643;48.824;11.422;2024-01-10T08:20:08;97824.41;;;-5.60;100.00
17054;BME280;8643;48.824;11.422;2024-01-10T08:22:39;97825.44;;;-5.75;100.00
17054;BME280;8643;48.824;11.422;2024-01-10T08:25:08;97819.06;;;-5.87;100.00
17054;BME280;8643;48.824;11.422;2024-01-10T08:27:37;97830.75;;;-6.28;100.00
17054;BME280;8643;48.824;11.422;2024-01-10T08:30:07;97838.03;;;-6.64;100.00
17054;BME280;8643;48.824;11.422;2024-01-10T08:32:37;97841.91;;;-6.73;100.00
17054;BME280;8643;48.824;11.422;2024-01-10T08:35:07;97831.81;;;-6.84;100.00
17054;BME280;8643;48.824;11.422;2024-01-10T08:37:37;97836.56;;;-6.79;100.00
17054;BME280;8643;48.824;11.422;2024-01-10T08:40:11;97843.31;;;-6.77;100.00
17054;BME280;8643;48.824;11.422;2024-01-10T08:42:42;97842.50;;;-6.77;100.00
17054;BME280;8643;48.824;11.422;2024-01-10T08:45:12;97848.03;;;-6.72;100.00
17054;BME280;8643;48.824;11.422;2024-01-10T08:47:42;97848.69;;;-6.64;100.00
17054;BME280;8643;48.824;11.422;2024-01-10T08:50:11;97855.88;;;-6.57;100.00
17054;BME280;8643;48.824;11.422;2024-01-10T08:52:39;97850.38;;;-6.49;100.00
17054;BME280;8643;48.824;11.422;2024-01-10T08:55:09;97853.44;;;-6.46;100.00
17054;BME280;8643;48.824;11.422;2024-01-10T08:57:40;97850.19;;;-6.41;100.00
17054;BME280;8643;48.824;11.422;2024-01-10T09:00:10;97853.72;;;-6.34;100.00
17054;BME280;8643;48.824;11.422;2024-01-10T09:02:40;97844.69;;;-6.26;100.00
17054;BME280;8643;48.824;11.422;2024-01-10T09:05:09;97842.47;;;-6.22;100.00
17054;BME280;8643;48.824;11.422;2024-01-10T09:07:38;97845.94;;;-6.22;100.00
17054;BME280;8643;48.824;11.422;2024-01-10T09:10:09;97853.72;;;-6.27;100.00
17054;BME280;8643;48.824;11.422;2024-01-10T09:12:38;97852.69;;;-6.19;100.00
17054;BME280;8643;48.824;11.422;2024-01-10T09:15:10;97859.69;;;-6.05;100.00
17054;BME280;8643;48.824;11.422;2024-01-10T09:17:41;97856.41;;;-5.80;100.00
17054;BME280;8643;48.824;11.422;2024-01-10T09:20:11;97864.84;;;-5.70;100.00
17054;BME280;8643;48.824;11.422;2024-01-10T09:22:40;97865.66;;;-5.69;100.00
17054;BME280;8643;48.824;11.422;2024-01-10T09:25:10;97867.53;;;-5.63;100.00
17054;BME280;8643;48.824;11.422;2024-01-10T09:27:40;97864.44;;;-5.60;100.00
17054;BME280;8643;48.824;11.422;2024-01-10T09:30:12;97865.88;;;-5.51;100.00
17054;BME280;8643;48.824;11.422;2024-01-10T09:32:45;97871.81;;;-5.36;100.00
17054;BME280;8643;48.824;11.422;2024-01-10T09:35:14;97868.09;;;-5.35;100.00
17054;BME280;8643;48.824;11.422;2024-01-10T09:37:42;97857.84;;;-5.31;100.00
17054;BME280;8643;48.824;11.422;2024-01-10T09:40:16;97867.47;;;-5.23;100.00
17054;BME280;8643;48.824;11.422;2024-01-10T09:42:46;97863.00;;;-5.29;100.00
17054;BME280;8643;48.824;11.422;2024-01-10T09:45:20;97862.78;;;-5.21;100.00
17054;BME280;8643;48.824;11.422;2024-01-10T09:47:54;97870.56;;;-5.13;100.00
17054;BME280;8643;48.824;11.422;2024-01-10T09:50:24;97872.81;;;-5.10;100.00
17054;BME280;8643;48.824;11.422;2024-01-10T09:53:05;97866.84;;;-5.05;100.00
17054;BME280;8643;48.824;11.422;2024-01-10T09:55:37;97875.91;;;-5.06;100.00
17054;BME280;8643;48.824;11.422;2024-01-10T09:58:06;97882.03;;;-4.99;100.00
17054;BME280;8643;48.824;11.422;2024-01-10T10:00:38;97887.78;;;-5.02;100.00
17054;BME280;8643;48.824;11.422;2024-01-10T10:03:08;97874.00;;;-4.99;100.00
17054;BME280;8643;48.824;11.422;2024-01-10T10:05:38;97879.16;;;-4.98;100.00
17054;BME280;8643;48.824;11.422;2024-01-10T10:08:11;97875.28;;;-5.02;100.00
17054;BME280;8643;48.824;11.422;2024-01-10T10:10:42;97869.69;;;-4.93;100.00
17054;BME280;8643;48.824;11.422;2024-01-10T10:13:24;97877.69;;;-4.87;100.00
17054;BME280;8643;48.824;11.422;2024-01-10T10:16:00;97870.88;;;-4.76;100.00
17054;BME280;8643;48.824;11.422;2024-01-10T10:18:30;97878.25;;;-4.71;100.00
17054;BME280;8643;48.824;11.422;2024-01-10T10:21:11;97875.78;;;-4.66;100.00
17054;BME280;8643;48.824;11.422;2024-01-10T10:23:41;97878.28;;;-4.78;100.00
17054;BME280;8643;48.824;11.422;2024-01-10T10:26:14;97869.59;;;-4.60;100.00
17054;BME280;8643;48.824;11.422;2024-01-10T10:28:50;97880.25;;;-4.53;100.00
17054;BME280;8643;48.824;11.422;2024-01-10T10:31:20;97872.63;;;-4.43;100.00
17054;BME280;8643;48.824;11.422;2024-01-10T10:33:49;97875.91;;;-4.41;100.00
17054;BME280;8643;48.824;11.422;2024-01-10T10:36:19;97863.53;;;-4.42;100.00
17054;BME280;8643;48.824;11.422;2024-01-10T10:38:48;97871.34;;;-4.40;100.00
17054;BME280;8643;48.824;11.422;2024-01-10T10:41:19;97872.97;;;-4.33;100.00
17054;BME280;8643;48.824;11.422;2024-01-10T10:43:49;97875.44;;;-4.31;100.00
17054;BME280;8643;48.824;11.422;2024-01-10T10:46:23;97875.41;;;-4.25;100.00
17054;BME280;8643;48.824;11.422;2024-01-10T10:49:00;97878.84;;;-4.17;100.00
17054;BME280;8643;48.824;11.422;2024-01-10T10:51:34;97874.75;;;-4.20;100.00
17054;BME280;8643;48.824;11.422;2024-01-10T10:54:06;97875.91;;;-4.09;100.00
17054;BME280;8643;48.824;11.422;2024-01-10T10:56:40;97865.84;;;-4.07;100.00
17054;BME280;8643;48.824;11.422;2024-01-10T10:59:13;97870.78;;;-4.11;100.00
17054;BME280;8643;48.824;11.422;2024-01-10T11:01:44;97872.44;;;-4.10;100.00
17054;BME280;8643;48.824;11.422;2024-01-10T11:04:14;97879.22;;;-4.07;100.00
17054;BME280;8643;48.824;11.422;2024-01-10T11:06:43;97865.84;;;-4.07;100.00
17054;BME280;8643;48.824;11.422;2024-01-10T11:09:17;97866.63;;;-4.00;100.00
17054;BME280;8643;48.824;11.422;2024-01-10T11:12:07;97867.16;;;-3.91;100.00
17054;BME280;8643;48.824;11.422;2024-01-10T11:15:06;97862.59;;;-3.84;100.00
17054;BME280;8643;48.824;11.422;2024-01-10T11:18:13;97863.59;;;-4.10;100.00
17054;BME280;8643;48.824;11.422;2024-01-10T11:21:03;97861.84;;;-3.98;100.00
17054;BME280;8643;48.824;11.422;2024-01-10T11:23:40;97864.94;;;-3.94;100.00
17054;BME280;8643;48.824;11.422;2024-01-10T11:26:14;97854.78;;;-3.85;100.00
17054;BME280;8643;48.824;11.422;2024-01-10T11:28:45;97848.84;;;-3.88;100.00
17054;BME280;8643;48.824;11.422;2024-01-10T11:31:14;97851.03;;;-3.78;100.00
17054;BME280;8643;48.824;11.422;2024-01-10T11:33:44;97849.94;;;-3.70;100.00
17054;BME280;8643;48.824;11.422;2024-01-10T11:36:17;97853.56;;;-3.58;100.00
17054;BME280;8643;48.824;11.422;2024-01-10T11:38:54;97853.22;;;-3.43;100.00
17054;BME280;8643;48.824;11.422;2024-01-10T11:41:26;97853.00;;;-3.41;100.00
17054;BME280;8643;48.824;11.422;2024-01-10T11:44:28;97852.72;;;-3.33;100.00
17054;BME280;8643;48.824;11.422;2024-01-10T11:46:59;97850.53;;;-3.43;100.00
17054;BME280;8643;48.824;11.422;2024-01-10T11:49:28;97847.44;;;-3.40;100.00
17054;BME280;8643;48.824;11.422;2024-01-10T11:51:58;97851.78;;;-3.20;100.00
17054;BME280;8643;48.824;11.422;2024-01-10T11:54:44;97844.91;;;-3.09;100.00
17054;BME280;8643;48.824;11.422;2024-01-10T11:57:19;97845.41;;;-3.19;100.00
17054;BME280;8643;48.824;11.422;2024-01-10T11:59:51;97843.25;;;-3.10;100.00
17054;BME280;8643;48.824;11.422;2024-01-10T12:02:23;97837.97;;;-2.99;100.00
17054;BME280;8643;48.824;11.422;2024-01-10T12:04:53;97838.47;;;-3.08;100.00
17054;BME280;8643;48.824;11.422;2024-01-10T12:07:22;97844.19;;;-3.05;100.00
17054;BME280;8643;48.824;11.422;2024-01-10T12:09:52;97841.22;;;-3.15;100.00
17054;BME280;8643;48.824;11.422;2024-01-10T12:12:21;97843.81;;;-3.27;100.00
17054;BME280;8643;48.824;11.422;2024-01-10T12:14:52;97835.41;;;-3.30;100.00
17054;BME280;8643;48.824;11.422;2024-01-10T12:17:20;97836.38;;;-3.25;100.00
17054;BME280;8643;48.824;11.422;2024-01-10T12:19:49;97843.03;;;-3.09;100.00
17054;BME280;8643;48.824;11.422;2024-01-10T12:22:18;97842.44;;;-3.11;100.00
17054;BME280;8643;48.824;11.422;2024-01-10T12:24:49;97837.38;;;-3.19;100.00
17054;BME280;8643;48.824;11.422;2024-01-10T12:27:19;97843.53;;;-3.00;100.00
17054;BME280;8643;48.824;11.422;2024-01-10T12:29:51;97825.63;;;-2.81;100.00
17054;BME280;8643;48.824;11.422;2024-01-10T12:32:21;97824.28;;;-2.72;100.00
17054;BME280;8643;48.824;11.422;2024-01-10T12:35:02;97831.63;;;-2.49;100.00
17054;BME280;8643;48.824;11.422;2024-01-10T12:37:31;97821.94;;;-2.19;100.00
17054;BME280;8643;48.824;11.422;2024-01-10T12:40:00;97828.22;;;-1.95;100.00
17054;BME280;8643;48.824;11.422;2024-01-10T12:42:36;97821.28;;;-1.49;96.96
17054;BME280;8643;48.824;11.422;2024-01-10T12:45:20;97829.88;;;-0.64;92.09
17054;BME280;8643;48.824;11.422;2024-01-10T12:47:49;97818.22;;;-0.29;89.27
17054;BME280;8643;48.824;11.422;2024-01-10T12:50:21;97823.72;;;1.12;85.82
17054;BME280;8643;48.824;11.422;2024-01-10T12:52:49;97818.78;;;1.48;80.48
17054;BME280;8643;48.824;11.422;2024-01-10T12:55:18;97824.16;;;1.25;80.13
17054;BME280;8643;48.824;11.422;2024-01-10T12:57:45;97818.59;;;2.04;78.06
17054;BME280;8643;48.824;11.422;2024-01-10T13:00:16;97818.59;;;2.04;75.16
17054;BME280;8643;48.824;11.422;2024-01-10T13:02:45;97813.88;;;2.86;72.68
17054;BME280;8643;48.824;11.422;2024-01-10T13:05:14;97811.13;;;2.75;72.50